sensor_id;sensor_type;location;lat;lon;timestamp;temperature;humidity
25250;DHT22;13201;51.148;13.738;2022-09-09T00:06:35;17.10;99.90
25250;DHT22;13201;51.148;13.738;2022-09-09T00:09:18;17.10;99.90
25250;DHT22;13201;51.148;13.738;2022-09-09T00:11:48;17.20;99.90
25250;DHT22;13201;51.148;13.738;2022-09-09T00:22:45;17.10;99.90
25250;DHT22;13201;51.148;13.738;2022-09-09T00:25:23;17.10;99.90
25250;DHT22;13201;51.148;13.738;2022-09-09T00:27:52;17.20;99.90
25250;DHT22;13201;51.148;13.738;2022-09-09T00:30:32;17.10;99.90
25250;DHT22;13201;51.148;13.738;2022-09-09T00:33:12;17.00;99.90
25250;DHT22;13201;51.148;13.738;2022-09-09T00:35:45;17.00;99.90
25250;DHT22;13201;51.148;13.738;2022-09-09T00:38:25;17.10;99.90
25250;DHT22;13201;51.148;13.738;2022-09-09T00:40:58;17.10;99.90
25250;DHT22;13201;51.148;13.738;2022-09-09T00:43:27;17.10;99.90
25250;DHT22;13201;51.148;13.738;2022-09-09T00:45:59;17.10;99.90
25250;DHT22;13201;51.148;13.738;2022-09-09T00:48:59;16.90;99.90
25250;DHT22;13201;51.148;13.738;2022-09-09T00:54:36;17.00;99.90
25250;DHT22;13201;51.148;13.738;2022-09-09T00:57:37;17.00;99.90
25250;DHT22;13201;51.148;13.738;2022-09-09T01:00:24;17.10;99.90
25250;DHT22;13201;51.148;13.738;2022-09-09T01:32:42;15.90;99.90
25250;DHT22;13201;51.148;13.738;2022-09-09T01:37:56;15.90;99.90
25250;DHT22;13201;51.148;13.738;2022-09-09T01:40:22;16.10;99.90
25250;DHT22;13201;51.148;13.738;2022-09-09T01:42:48;16.20;99.90
25250;DHT22;13201;51.148;13.738;2022-09-09T01:45:14;16.30;99.90
25250;DHT22;13201;51.148;13.738;2022-09-09T01:47:40;16.40;99.90
25250;DHT22;13201;51.148;13.738;2022-09-09T01:50:08;16.50;99.90
25250;DHT22;13201;51.148;13.738;2022-09-09T01:52:37;16.50;99.90
25250;DHT22;13201;51.148;13.738;2022-09-09T01:55:04;16.50;99.90
25250;DHT22;13201;51.148;13.738;2022-09-09T01:57:39;16.60;99.90
25250;DHT22;13201;51.148;13.738;2022-09-09T02:00:10;16.60;99.90
25250;DHT22;13201;51.148;13.738;2022-09-09T02:02:59;16.60;99.90
25250;DHT22;13201;51.148;13.738;2022-09-09T02:05:40;16.60;99.90
25250;DHT22;13201;51.148;13.738;2022-09-09T02:08:20;16.60;99.90
25250;DHT22;13201;51.148;13.738;2022-09-09T02:10:55;16.60;99.90
25250;DHT22;13201;51.148;13.738;2022-09-09T02:13:22;16.60;99.90
25250;DHT22;13201;51.148;13.738;2022-09-09T02:16:05;16.60;99.90
25250;DHT22;13201;51.148;13.738;2022-09-09T02:18:49;16.70;99.90
25250;DHT22;13201;51.148;13.738;2022-09-09T02:21:17;16.60;99.90
25250;DHT22;13201;51.148;13.738;2022-09-09T02:23:43;16.70;99.90
25250;DHT22;13201;51.148;13.738;2022-09-09T02:26:12;16.60;99.90
25250;DHT22;13201;51.148;13.738;2022-09-09T02:28:40;16.70;99.90
25250;DHT22;13201;51.148;13.738;2022-09-09T02:31:07;16.60;99.90
25250;DHT22;13201;51.148;13.738;2022-09-09T02:33:37;16.50;99.90
25250;DHT22;13201;51.148;13.738;2022-09-09T02:36:04;16.50;99.90
25250;DHT22;13201;51.148;13.738;2022-09-09T02:38:36;16.40;99.90
25250;DHT22;13201;51.148;13.738;2022-09-09T02:41:05;16.10;99.90
25250;DHT22;13201;51.148;13.738;2022-09-09T02:43:35;16.30;99.90
25250;DHT22;13201;51.148;13.738;2022-09-09T02:49:09;16.20;99.90
25250;DHT22;13201;51.148;13.738;2022-09-09T02:51:45;16.40;99.90
25250;DHT22;13201;51.148;13.738;2022-09-09T02:54:34;16.40;99.90
25250;DHT22;13201;51.148;13.738;2022-09-09T02:57:21;16.40;99.90
25250;DHT22;13201;51.148;13.738;2022-09-09T02:59:49;16.50;99.90
25250;DHT22;13201;51.148;13.738;2022-09-09T03:02:15;16.50;99.90
25250;DHT22;13201;51.148;13.738;2022-09-09T03:04:41;16.50;99.90
25250;DHT22;13201;51.148;13.738;2022-09-09T03:07:10;16.50;99.90
25250;DHT22;13201;51.148;13.738;2022-09-09T03:09:36;16.60;99.90
25250;DHT22;13201;51.148;13.738;2022-09-09T03:12:01;16.50;99.90
25250;DHT22;13201;51.148;13.738;2022-09-09T03:14:29;16.40;99.90
25250;DHT22;13201;51.148;13.738;2022-09-09T03:16:55;16.30;99.90
25250;DHT22;13201;51.148;13.738;2022-09-09T03:19:23;16.20;99.90
25250;DHT22;13201;51.148;13.738;2022-09-09T03:21:49;16.40;99.90
25250;DHT22;13201;51.148;13.738;2022-09-09T03:24:15;16.40;99.90
25250;DHT22;13201;51.148;13.738;2022-09-09T03:26:41;16.20;99.90
25250;DHT22;13201;51.148;13.738;2022-09-09T03:29:10;16.30;99.90
25250;DHT22;13201;51.148;13.738;2022-09-09T03:31:38;16.40;99.90
25250;DHT22;13201;51.148;13.738;2022-09-09T03:34:03;16.30;99.90
25250;DHT22;13201;51.148;13.738;2022-09-09T03:36:29;16.40;99.90
25250;DHT22;13201;51.148;13.738;2022-09-09T03:38:55;16.50;99.90
25250;DHT22;13201;51.148;13.738;2022-09-09T03:41:22;16.60;99.90
25250;DHT22;13201;51.148;13.738;2022-09-09T03:43:52;16.50;99.90
25250;DHT22;13201;51.148;13.738;2022-09-09T03:46:19;16.50;99.90
25250;DHT22;13201;51.148;13.738;2022-09-09T03:48:45;16.50;99.90
25250;DHT22;13201;51.148;13.738;2022-09-09T03:51:10;16.50;99.90
25250;DHT22;13201;51.148;13.738;2022-09-09T03:53:36;16.50;99.90
25250;DHT22;13201;51.148;13.738;2022-09-09T03:56:04;16.40;99.90
25250;DHT22;13201;51.148;13.738;2022-09-09T03:58:35;16.40;99.90
25250;DHT22;13201;51.148;13.738;2022-09-09T04:01:09;16.40;99.90
25250;DHT22;13201;51.148;13.738;2022-09-09T04:03:35;16.30;99.90
25250;DHT22;13201;51.148;13.738;2022-09-09T04:06:02;16.50;99.90
25250;DHT22;13201;51.148;13.738;2022-09-09T04:08:29;16.50;99.90
25250;DHT22;13201;51.148;13.738;2022-09-09T04:10:59;16.40;99.90
25250;DHT22;13201;51.148;13.738;2022-09-09T04:13:26;16.40;99.90
25250;DHT22;13201;51.148;13.738;2022-09-09T04:15:53;16.40;99.90
25250;DHT22;13201;51.148;13.738;2022-09-09T04:18:19;16.30;99.90
25250;DHT22;13201;51.148;13.738;2022-09-09T04:20:49;16.30;99.90
25250;DHT22;13201;51.148;13.738;2022-09-09T04:23:15;16.30;99.90
25250;DHT22;13201;51.148;13.738;2022-09-09T04:25:52;16.30;99.90
25250;DHT22;13201;51.148;13.738;2022-09-09T04:28:20;16.30;99.90
25250;DHT22;13201;51.148;13.738;2022-09-09T04:30:47;16.30;99.90
25250;DHT22;13201;51.148;13.738;2022-09-09T04:33:13;16.20;99.90
25250;DHT22;13201;51.148;13.738;2022-09-09T04:35:39;16.20;99.90
25250;DHT22;13201;51.148;13.738;2022-09-09T04:38:08;16.10;99.90
25250;DHT22;13201;51.148;13.738;2022-09-09T04:40:35;16.20;99.90
25250;DHT22;13201;51.148;13.738;2022-09-09T04:43:01;16.10;99.90
25250;DHT22;13201;51.148;13.738;2022-09-09T04:45:28;16.10;99.90
25250;DHT22;13201;51.148;13.738;2022-09-09T04:47:54;16.10;99.90
25250;DHT22;13201;51.148;13.738;2022-09-09T04:50:20;16.20;99.90
25250;DHT22;13201;51.148;13.738;2022-09-09T04:52:46;16.20;99.90
25250;DHT22;13201;51.148;13.738;2022-09-09T04:55:12;16.10;99.90
25250;DHT22;13201;51.148;13.738;2022-09-09T04:57:38;16.10;99.90
25250;DHT22;13201;51.148;13.738;2022-09-09T05:00:04;16.10;99.90
25250;DHT22;13201;51.148;13.738;2022-09-09T05:02:30;16.10;99.90
25250;DHT22;13201;51.148;13.738;2022-09-09T05:04:57;16.10;99.90
25250;DHT22;13201;51.148;13.738;2022-09-09T05:07:23;16.20;99.90
25250;DHT22;13201;51.148;13.738;2022-09-09T05:09:49;16.20;99.90
25250;DHT22;13201;51.148;13.738;2022-09-09T05:12:15;16.20;99.90
25250;DHT22;13201;51.148;13.738;2022-09-09T05:14:44;16.20;99.90
25250;DHT22;13201;51.148;13.738;2022-09-09T05:17:10;16.30;99.90
25250;DHT22;13201;51.148;13.738;2022-09-09T05:19:36;16.30;99.90
25250;DHT22;13201;51.148;13.738;2022-09-09T05:22:01;16.30;99.90
25250;DHT22;13201;51.148;13.738;2022-09-09T05:24:27;16.40;99.90
25250;DHT22;13201;51.148;13.738;2022-09-09T05:26:53;16.30;99.90
25250;DHT22;13201;51.148;13.738;2022-09-09T05:29:19;16.30;99.90
25250;DHT22;13201;51.148;13.738;2022-09-09T05:31:45;16.40;99.90
25250;DHT22;13201;51.148;13.738;2022-09-09T05:34:11;16.40;99.90
25250;DHT22;13201;51.148;13.738;2022-09-09T05:36:36;16.40;99.90
25250;DHT22;13201;51.148;13.738;2022-09-09T05:39:03;16.50;99.90
25250;DHT22;13201;51.148;13.738;2022-09-09T05:41:28;16.60;99.90
25250;DHT22;13201;51.148;13.738;2022-09-09T05:43:54;16.60;99.90
25250;DHT22;13201;51.148;13.738;2022-09-09T05:46:22;16.60;99.90
25250;DHT22;13201;51.148;13.738;2022-09-09T05:48:49;16.60;99.90
25250;DHT22;13201;51.148;13.738;2022-09-09T05:51:19;16.60;99.90
25250;DHT22;13201;51.148;13.738;2022-09-09T05:53:46;16.60;99.90
25250;DHT22;13201;51.148;13.738;2022-09-09T05:58:43;16.70;99.90
25250;DHT22;13201;51.148;13.738;2022-09-09T06:01:32;16.60;99.90
25250;DHT22;13201;51.148;13.738;2022-09-09T06:03:58;16.70;99.90
25250;DHT22;13201;51.148;13.738;2022-09-09T06:06:26;16.80;99.90
25250;DHT22;13201;51.148;13.738;2022-09-09T06:08:54;16.80;99.90
25250;DHT22;13201;51.148;13.738;2022-09-09T06:11:21;16.70;99.90
25250;DHT22;13201;51.148;13.738;2022-09-09T06:13:47;16.90;99.90
25250;DHT22;13201;51.148;13.738;2022-09-09T06:16:18;16.90;99.90
25250;DHT22;13201;51.148;13.738;2022-09-09T06:18:44;17.00;99.90
25250;DHT22;13201;51.148;13.738;2022-09-09T06:21:18;17.10;99.90
25250;DHT22;13201;51.148;13.738;2022-09-09T06:23:45;17.10;99.90
25250;DHT22;13201;51.148;13.738;2022-09-09T06:28:38;17.00;99.90
25250;DHT22;13201;51.148;13.738;2022-09-09T06:31:06;17.00;99.90
25250;DHT22;13201;51.148;13.738;2022-09-09T06:33:34;17.00;99.90
25250;DHT22;13201;51.148;13.738;2022-09-09T06:36:01;17.00;99.90
25250;DHT22;13201;51.148;13.738;2022-09-09T06:38:27;17.10;99.90
25250;DHT22;13201;51.148;13.738;2022-09-09T06:40:58;17.20;99.90
25250;DHT22;13201;51.148;13.738;2022-09-09T06:43:27;17.30;99.90
25250;DHT22;13201;51.148;13.738;2022-09-09T06:48:26;17.30;99.90
25250;DHT22;13201;51.148;13.738;2022-09-09T06:53:29;17.50;99.90
25250;DHT22;13201;51.148;13.738;2022-09-09T06:55:55;17.60;99.90
25250;DHT22;13201;51.148;13.738;2022-09-09T06:58:21;17.70;99.90
25250;DHT22;13201;51.148;13.738;2022-09-09T07:00:49;17.80;99.90
25250;DHT22;13201;51.148;13.738;2022-09-09T07:03:15;18.00;99.90
25250;DHT22;13201;51.148;13.738;2022-09-09T07:05:40;18.10;99.90
25250;DHT22;13201;51.148;13.738;2022-09-09T07:08:06;18.20;99.90
25250;DHT22;13201;51.148;13.738;2022-09-09T07:10:32;18.40;99.90
25250;DHT22;13201;51.148;13.738;2022-09-09T07:12:59;18.50;99.90
25250;DHT22;13201;51.148;13.738;2022-09-09T07:15:25;18.50;99.90
25250;DHT22;13201;51.148;13.738;2022-09-09T07:17:51;18.50;99.90
25250;DHT22;13201;51.148;13.738;2022-09-09T07:20:19;18.50;99.90
25250;DHT22;13201;51.148;13.738;2022-09-09T07:22:45;18.50;99.90
25250;DHT22;13201;51.148;13.738;2022-09-09T07:25:11;18.70;99.90
25250;DHT22;13201;51.148;13.738;2022-09-09T07:27:37;18.80;99.90
25250;DHT22;13201;51.148;13.738;2022-09-09T07:30:03;18.90;99.90
25250;DHT22;13201;51.148;13.738;2022-09-09T07:32:29;18.90;99.90
25250;DHT22;13201;51.148;13.738;2022-09-09T07:34:55;18.80;99.90
25250;DHT22;13201;51.148;13.738;2022-09-09T07:37:23;18.80;99.90
25250;DHT22;13201;51.148;13.738;2022-09-09T07:39:49;18.90;99.90
25250;DHT22;13201;51.148;13.738;2022-09-09T07:42:16;18.90;99.90
25250;DHT22;13201;51.148;13.738;2022-09-09T07:44:42;19.00;99.90
25250;DHT22;13201;51.148;13.738;2022-09-09T07:47:07;19.20;99.90
25250;DHT22;13201;51.148;13.738;2022-09-09T07:49:33;19.40;99.90
25250;DHT22;13201;51.148;13.738;2022-09-09T07:51:59;19.70;99.90
25250;DHT22;13201;51.148;13.738;2022-09-09T07:54:25;19.70;99.90
25250;DHT22;13201;51.148;13.738;2022-09-09T07:56:52;19.90;99.90
25250;DHT22;13201;51.148;13.738;2022-09-09T07:59:17;20.00;99.90
25250;DHT22;13201;51.148;13.738;2022-09-09T08:01:46;20.30;99.90
25250;DHT22;13201;51.148;13.738;2022-09-09T08:04:17;20.30;99.90
25250;DHT22;13201;51.148;13.738;2022-09-09T08:06:49;20.30;99.90
25250;DHT22;13201;51.148;13.738;2022-09-09T08:09:15;20.60;99.90
25250;DHT22;13201;51.148;13.738;2022-09-09T08:11:41;20.60;99.90
25250;DHT22;13201;51.148;13.738;2022-09-09T08:14:08;20.50;99.90
25250;DHT22;13201;51.148;13.738;2022-09-09T08:16:35;20.60;99.90
25250;DHT22;13201;51.148;13.738;2022-09-09T08:19:02;20.60;99.90
25250;DHT22;13201;51.148;13.738;2022-09-09T08:21:30;20.60;99.90
25250;DHT22;13201;51.148;13.738;2022-09-09T08:23:58;20.70;99.90
25250;DHT22;13201;51.148;13.738;2022-09-09T08:26:26;20.60;99.90
25250;DHT22;13201;51.148;13.738;2022-09-09T08:28:55;20.60;99.90
25250;DHT22;13201;51.148;13.738;2022-09-09T08:31:33;20.70;99.90
25250;DHT22;13201;51.148;13.738;2022-09-09T08:34:00;20.70;99.90
25250;DHT22;13201;51.148;13.738;2022-09-09T08:36:30;20.80;99.90
25250;DHT22;13201;51.148;13.738;2022-09-09T08:38:57;20.80;99.90
25250;DHT22;13201;51.148;13.738;2022-09-09T08:43:58;20.60;99.90
25250;DHT22;13201;51.148;13.738;2022-09-09T08:46:46;20.90;99.90
25250;DHT22;13201;51.148;13.738;2022-09-09T08:52:23;21.10;99.90
25250;DHT22;13201;51.148;13.738;2022-09-09T08:54:51;21.00;99.90
25250;DHT22;13201;51.148;13.738;2022-09-09T08:57:23;21.20;99.90
25250;DHT22;13201;51.148;13.738;2022-09-09T08:59:52;21.20;99.90
25250;DHT22;13201;51.148;13.738;2022-09-09T09:02:45;21.30;99.90
25250;DHT22;13201;51.148;13.738;2022-09-09T09:05:23;21.30;99.90
25250;DHT22;13201;51.148;13.738;2022-09-09T09:13:10;21.50;99.90
25250;DHT22;13201;51.148;13.738;2022-09-09T09:15:38;21.40;99.90
25250;DHT22;13201;51.148;13.738;2022-09-09T09:18:05;21.50;99.90
25250;DHT22;13201;51.148;13.738;2022-09-09T09:23:37;21.40;99.90
25250;DHT22;13201;51.148;13.738;2022-09-09T09:26:00;21.30;99.90
25250;DHT22;13201;51.148;13.738;2022-09-09T09:28:29;21.20;99.90
25250;DHT22;13201;51.148;13.738;2022-09-09T09:30:59;21.00;99.90
25250;DHT22;13201;51.148;13.738;2022-09-09T09:33:49;20.90;99.90
25250;DHT22;13201;51.148;13.738;2022-09-09T09:36:16;20.80;99.90
25250;DHT22;13201;51.148;13.738;2022-09-09T09:39:08;20.80;99.90
25250;DHT22;13201;51.148;13.738;2022-09-09T09:41:40;20.70;99.90
25250;DHT22;13201;51.148;13.738;2022-09-09T09:46:47;20.80;99.90
25250;DHT22;13201;51.148;13.738;2022-09-09T09:49:12;20.80;99.90
25250;DHT22;13201;51.148;13.738;2022-09-09T09:51:39;20.80;99.90
25250;DHT22;13201;51.148;13.738;2022-09-09T09:54:28;20.70;99.90
25250;DHT22;13201;51.148;13.738;2022-09-09T09:56:55;20.80;99.90
25250;DHT22;13201;51.148;13.738;2022-09-09T09:59:34;21.00;99.90
25250;DHT22;13201;51.148;13.738;2022-09-09T10:04:41;21.60;99.90
25250;DHT22;13201;51.148;13.738;2022-09-09T10:07:11;21.70;99.90
25250;DHT22;13201;51.148;13.738;2022-09-09T10:09:37;21.80;99.90
25250;DHT22;13201;51.148;13.738;2022-09-09T10:22:53;22.50;99.90
25250;DHT22;13201;51.148;13.738;2022-09-09T10:36:24;22.90;99.90
25250;DHT22;13201;51.148;13.738;2022-09-09T10:44:29;23.10;99.90
25250;DHT22;13201;51.148;13.738;2022-09-09T10:47:39;23.10;99.90
25250;DHT22;13201;51.148;13.738;2022-09-09T10:55:39;23.20;99.90
25250;DHT22;13201;51.148;13.738;2022-09-09T10:58:12;23.10;99.90
25250;DHT22;13201;51.148;13.738;2022-09-09T11:00:45;23.00;99.90
25250;DHT22;13201;51.148;13.738;2022-09-09T11:03:23;22.80;99.90
25250;DHT22;13201;51.148;13.738;2022-09-09T11:05:55;22.80;99.90
25250;DHT22;13201;51.148;13.738;2022-09-09T11:08:25;22.70;99.90
25250;DHT22;13201;51.148;13.738;2022-09-09T11:10:53;22.60;99.90
25250;DHT22;13201;51.148;13.738;2022-09-09T11:13:35;22.90;99.90
25250;DHT22;13201;51.148;13.738;2022-09-09T11:19:02;23.80;99.90
25250;DHT22;13201;51.148;13.738;2022-09-09T11:21:33;23.70;99.90
25250;DHT22;13201;51.148;13.738;2022-09-09T11:24:09;23.50;99.90
25250;DHT22;13201;51.148;13.738;2022-09-09T11:26:47;23.30;99.90
25250;DHT22;13201;51.148;13.738;2022-09-09T11:29:49;23.00;99.90
25250;DHT22;13201;51.148;13.738;2022-09-09T11:32:32;23.20;99.90
25250;DHT22;13201;51.148;13.738;2022-09-09T11:40:41;22.80;99.90
25250;DHT22;13201;51.148;13.738;2022-09-09T11:43:26;22.40;99.90
25250;DHT22;13201;51.148;13.738;2022-09-09T11:45:55;22.10;99.90
25250;DHT22;13201;51.148;13.738;2022-09-09T11:48:44;22.00;99.90
25250;DHT22;13201;51.148;13.738;2022-09-09T11:51:30;22.10;99.90
25250;DHT22;13201;51.148;13.738;2022-09-09T11:53:58;22.30;99.90
25250;DHT22;13201;51.148;13.738;2022-09-09T11:56:34;22.30;99.90
25250;DHT22;13201;51.148;13.738;2022-09-09T11:59:03;22.60;99.90
25250;DHT22;13201;51.148;13.738;2022-09-09T12:01:43;22.90;99.90
25250;DHT22;13201;51.148;13.738;2022-09-09T12:14:38;23.90;99.90
25250;DHT22;13201;51.148;13.738;2022-09-09T12:19:36;24.00;99.90
25250;DHT22;13201;51.148;13.738;2022-09-09T12:22:22;24.30;99.90
25250;DHT22;13201;51.148;13.738;2022-09-09T12:27:51;24.10;99.90
25250;DHT22;13201;51.148;13.738;2022-09-09T12:30:21;24.30;99.90
25250;DHT22;13201;51.148;13.738;2022-09-09T12:33:00;24.80;99.90
25250;DHT22;13201;51.148;13.738;2022-09-09T12:35:28;25.30;99.90
25250;DHT22;13201;51.148;13.738;2022-09-09T12:37:59;25.10;99.90
25250;DHT22;13201;51.148;13.738;2022-09-09T12:40:34;25.00;99.90
25250;DHT22;13201;51.148;13.738;2022-09-09T12:43:17;25.10;99.90
25250;DHT22;13201;51.148;13.738;2022-09-09T12:45:42;25.30;99.90
25250;DHT22;13201;51.148;13.738;2022-09-09T12:48:09;25.00;99.90
25250;DHT22;13201;51.148;13.738;2022-09-09T12:50:51;25.30;99.90
25250;DHT22;13201;51.148;13.738;2022-09-09T12:53:33;24.90;99.90
25250;DHT22;13201;51.148;13.738;2022-09-09T12:56:02;25.30;99.90
25250;DHT22;13201;51.148;13.738;2022-09-09T12:58:30;25.90;99.90
25250;DHT22;13201;51.148;13.738;2022-09-09T13:01:00;25.90;99.90
25250;DHT22;13201;51.148;13.738;2022-09-09T13:03:30;26.40;99.90
25250;DHT22;13201;51.148;13.738;2022-09-09T13:05:59;26.30;99.90
25250;DHT22;13201;51.148;13.738;2022-09-09T13:08:35;26.30;99.90
25250;DHT22;13201;51.148;13.738;2022-09-09T13:11:04;26.20;99.90
25250;DHT22;13201;51.148;13.738;2022-09-09T13:13:38;26.60;99.90
25250;DHT22;13201;51.148;13.738;2022-09-09T13:16:05;26.00;99.90
25250;DHT22;13201;51.148;13.738;2022-09-09T13:18:40;25.40;99.90
25250;DHT22;13201;51.148;13.738;2022-09-09T13:21:07;25.70;99.90
25250;DHT22;13201;51.148;13.738;2022-09-09T13:23:36;25.90;99.90
25250;DHT22;13201;51.148;13.738;2022-09-09T13:26:03;25.80;99.90
25250;DHT22;13201;51.148;13.738;2022-09-09T13:28:30;26.50;99.90
25250;DHT22;13201;51.148;13.738;2022-09-09T13:31:05;27.20;99.90
25250;DHT22;13201;51.148;13.738;2022-09-09T13:33:39;27.40;99.90
25250;DHT22;13201;51.148;13.738;2022-09-09T13:36:07;27.50;99.90
25250;DHT22;13201;51.148;13.738;2022-09-09T13:38:55;27.30;99.90
25250;DHT22;13201;51.148;13.738;2022-09-09T13:41:22;27.20;99.90
25250;DHT22;13201;51.148;13.738;2022-09-09T13:43:50;27.00;99.90
25250;DHT22;13201;51.148;13.738;2022-09-09T13:46:27;26.30;99.90
25250;DHT22;13201;51.148;13.738;2022-09-09T13:48:57;26.40;99.90
25250;DHT22;13201;51.148;13.738;2022-09-09T13:51:42;26.10;99.90
25250;DHT22;13201;51.148;13.738;2022-09-09T13:54:10;26.40;99.90
25250;DHT22;13201;51.148;13.738;2022-09-09T13:56:36;26.40;99.90
25250;DHT22;13201;51.148;13.738;2022-09-09T13:59:04;26.30;99.90
25250;DHT22;13201;51.148;13.738;2022-09-09T14:01:29;26.10;99.90
25250;DHT22;13201;51.148;13.738;2022-09-09T14:03:56;25.80;99.90
25250;DHT22;13201;51.148;13.738;2022-09-09T14:06:22;25.80;99.90
25250;DHT22;13201;51.148;13.738;2022-09-09T14:08:49;25.30;99.90
25250;DHT22;13201;51.148;13.738;2022-09-09T14:11:15;25.30;99.90
25250;DHT22;13201;51.148;13.738;2022-09-09T14:13:41;25.40;99.90
25250;DHT22;13201;51.148;13.738;2022-09-09T14:16:07;25.40;99.90
25250;DHT22;13201;51.148;13.738;2022-09-09T14:18:32;25.10;99.90
25250;DHT22;13201;51.148;13.738;2022-09-09T14:20:59;25.10;99.90
25250;DHT22;13201;51.148;13.738;2022-09-09T14:23:25;25.30;99.90
25250;DHT22;13201;51.148;13.738;2022-09-09T14:25:51;25.40;99.90
25250;DHT22;13201;51.148;13.738;2022-09-09T14:28:17;25.50;99.90
25250;DHT22;13201;51.148;13.738;2022-09-09T14:30:43;25.70;99.90
25250;DHT22;13201;51.148;13.738;2022-09-09T14:33:14;26.50;99.90
25250;DHT22;13201;51.148;13.738;2022-09-09T14:35:41;26.90;99.90
25250;DHT22;13201;51.148;13.738;2022-09-09T14:38:07;26.80;99.90
25250;DHT22;13201;51.148;13.738;2022-09-09T14:40:37;27.00;99.90
25250;DHT22;13201;51.148;13.738;2022-09-09T14:43:04;27.50;99.90
25250;DHT22;13201;51.148;13.738;2022-09-09T14:45:29;28.00;99.90
25250;DHT22;13201;51.148;13.738;2022-09-09T14:47:55;28.50;99.90
25250;DHT22;13201;51.148;13.738;2022-09-09T14:50:22;28.60;99.90
25250;DHT22;13201;51.148;13.738;2022-09-09T14:52:47;28.40;99.90
25250;DHT22;13201;51.148;13.738;2022-09-09T14:55:13;29.10;98.90
25250;DHT22;13201;51.148;13.738;2022-09-09T14:57:39;29.60;98.60
25250;DHT22;13201;51.148;13.738;2022-09-09T15:00:07;29.60;99.20
25250;DHT22;13201;51.148;13.738;2022-09-09T15:02:33;29.40;99.40
25250;DHT22;13201;51.148;13.738;2022-09-09T15:04:59;29.00;98.80
25250;DHT22;13201;51.148;13.738;2022-09-09T15:07:25;29.00;98.10
25250;DHT22;13201;51.148;13.738;2022-09-09T15:09:52;30.00;97.90
25250;DHT22;13201;51.148;13.738;2022-09-09T15:12:18;30.10;97.50
25250;DHT22;13201;51.148;13.738;2022-09-09T15:14:45;30.10;97.30
25250;DHT22;13201;51.148;13.738;2022-09-09T15:17:11;30.40;97.50
25250;DHT22;13201;51.148;13.738;2022-09-09T15:19:37;30.60;97.90
25250;DHT22;13201;51.148;13.738;2022-09-09T15:22:03;30.10;98.80
25250;DHT22;13201;51.148;13.738;2022-09-09T15:24:31;30.20;97.70
25250;DHT22;13201;51.148;13.738;2022-09-09T15:26:57;30.00;98.30
25250;DHT22;13201;51.148;13.738;2022-09-09T15:29:23;30.00;98.00
25250;DHT22;13201;51.148;13.738;2022-09-09T15:31:49;30.10;98.50
25250;DHT22;13201;51.148;13.738;2022-09-09T15:34:14;29.60;98.50
25250;DHT22;13201;51.148;13.738;2022-09-09T15:36:42;29.40;98.60
25250;DHT22;13201;51.148;13.738;2022-09-09T15:39:10;29.00;98.70
25250;DHT22;13201;51.148;13.738;2022-09-09T15:41:41;28.40;99.10
25250;DHT22;13201;51.148;13.738;2022-09-09T15:44:07;28.00;98.20
25250;DHT22;13201;51.148;13.738;2022-09-09T15:46:34;27.90;98.10
25250;DHT22;13201;51.148;13.738;2022-09-09T15:51:36;26.80;99.90
25250;DHT22;13201;51.148;13.738;2022-09-09T15:54:03;26.70;99.80
25250;DHT22;13201;51.148;13.738;2022-09-09T15:56:29;27.00;99.90
25250;DHT22;13201;51.148;13.738;2022-09-09T15:59:00;27.00;99.90
25250;DHT22;13201;51.148;13.738;2022-09-09T16:01:29;26.70;99.90
25250;DHT22;13201;51.148;13.738;2022-09-09T16:03:56;26.60;99.90
25250;DHT22;13201;51.148;13.738;2022-09-09T16:06:22;26.30;99.90
25250;DHT22;13201;51.148;13.738;2022-09-09T16:08:49;26.30;99.90
25250;DHT22;13201;51.148;13.738;2022-09-09T16:11:33;26.10;99.90
25250;DHT22;13201;51.148;13.738;2022-09-09T16:14:00;25.40;99.90
25250;DHT22;13201;51.148;13.738;2022-09-09T16:16:28;25.10;99.90
25250;DHT22;13201;51.148;13.738;2022-09-09T16:18:59;24.80;99.90
25250;DHT22;13201;51.148;13.738;2022-09-09T16:21:28;24.80;99.90
25250;DHT22;13201;51.148;13.738;2022-09-09T16:23:55;25.10;99.90
25250;DHT22;13201;51.148;13.738;2022-09-09T16:26:21;25.70;99.90
25250;DHT22;13201;51.148;13.738;2022-09-09T16:28:47;25.80;99.90
25250;DHT22;13201;51.148;13.738;2022-09-09T16:31:23;26.20;99.90
25250;DHT22;13201;51.148;13.738;2022-09-09T16:33:50;26.30;99.90
25250;DHT22;13201;51.148;13.738;2022-09-09T16:36:20;26.40;99.90
25250;DHT22;13201;51.148;13.738;2022-09-09T16:38:46;26.10;99.90
25250;DHT22;13201;51.148;13.738;2022-09-09T16:41:13;26.20;99.90
25250;DHT22;13201;51.148;13.738;2022-09-09T16:43:39;26.30;99.90
25250;DHT22;13201;51.148;13.738;2022-09-09T16:46:12;26.30;99.90
25250;DHT22;13201;51.148;13.738;2022-09-09T16:48:39;26.00;99.90
25250;DHT22;13201;51.148;13.738;2022-09-09T16:51:07;25.90;99.90
25250;DHT22;13201;51.148;13.738;2022-09-09T16:53:34;25.60;99.90
25250;DHT22;13201;51.148;13.738;2022-09-09T16:56:10;25.40;99.90
25250;DHT22;13201;51.148;13.738;2022-09-09T16:58:36;25.30;99.90
25250;DHT22;13201;51.148;13.738;2022-09-09T17:01:03;25.20;99.90
25250;DHT22;13201;51.148;13.738;2022-09-09T17:03:29;25.10;99.90
25250;DHT22;13201;51.148;13.738;2022-09-09T17:05:55;24.90;99.90
25250;DHT22;13201;51.148;13.738;2022-09-09T17:08:23;24.80;99.90
25250;DHT22;13201;51.148;13.738;2022-09-09T17:10:49;24.60;99.90
25250;DHT22;13201;51.148;13.738;2022-09-09T17:13:16;24.40;99.90
25250;DHT22;13201;51.148;13.738;2022-09-09T17:15:45;24.20;99.90
25250;DHT22;13201;51.148;13.738;2022-09-09T17:18:12;24.00;99.90
25250;DHT22;13201;51.148;13.738;2022-09-09T17:20:41;24.00;99.90
25250;DHT22;13201;51.148;13.738;2022-09-09T17:23:08;23.90;99.90
25250;DHT22;13201;51.148;13.738;2022-09-09T17:25:35;23.80;99.90
25250;DHT22;13201;51.148;13.738;2022-09-09T17:28:01;23.60;99.90
25250;DHT22;13201;51.148;13.738;2022-09-09T17:30:30;23.40;99.90
25250;DHT22;13201;51.148;13.738;2022-09-09T17:32:59;23.10;99.90
25250;DHT22;13201;51.148;13.738;2022-09-09T17:35:25;23.10;99.90
25250;DHT22;13201;51.148;13.738;2022-09-09T17:37:53;23.10;99.90
25250;DHT22;13201;51.148;13.738;2022-09-09T17:40:20;22.50;99.90
25250;DHT22;13201;51.148;13.738;2022-09-09T17:42:46;22.40;99.90
25250;DHT22;13201;51.148;13.738;2022-09-09T17:45:12;22.40;99.90
25250;DHT22;13201;51.148;13.738;2022-09-09T17:47:38;22.10;99.90
25250;DHT22;13201;51.148;13.738;2022-09-09T17:50:05;22.00;99.90
25250;DHT22;13201;51.148;13.738;2022-09-09T17:52:32;22.00;99.90